createdAt,value
2019-05-25T00:00:36.721Z,0
2019-05-25T00:01:17.339Z,0
2019-05-25T00:01:57.870Z,0
2019-05-25T00:02:38.448Z,0
2019-05-25T00:03:19.023Z,0
2019-05-25T00:03:59.613Z,0
2019-05-25T00:04:40.173Z,0
2019-05-25T00:05:20.749Z,0
2019-05-25T00:08:34.616Z,0
2019-05-25T00:09:15.207Z,0
2019-05-25T00:09:55.748Z,0
2019-05-25T00:10:36.316Z,0
2019-05-25T00:11:16.887Z,0
2019-05-25T00:11:57.425Z,0
2019-05-25T00:12:37.986Z,0
2019-05-25T00:13:18.581Z,0
2019-05-25T00:13:59.132Z,0
2019-05-25T00:20:04.674Z,0
2019-05-25T00:20:45.246Z,0
2019-05-25T00:21:25.788Z,0
2019-05-25T00:22:06.350Z,0
2019-05-25T00:22:46.952Z,0
2019-05-25T00:23:27.563Z,0
2019-05-25T00:24:12.009Z,0
2019-05-25T00:24:48.709Z,0
2019-05-25T00:25:29.289Z,0
2019-05-25T00:26:09.909Z,0
2019-05-25T00:26:50.514Z,0
2019-05-25T00:27:31.133Z,0
2019-05-25T00:28:11.689Z,0
2019-05-25T00:28:52.264Z,0
2019-05-25T00:29:32.823Z,0
2019-05-25T00:30:13.403Z,0
2019-05-25T00:36:18.590Z,0
2019-05-25T00:36:59.140Z,0
2019-05-25T00:37:39.732Z,0
2019-05-25T00:38:20.326Z,0
2019-05-25T00:41:34.310Z,0
2019-05-25T00:42:14.895Z,0
2019-05-25T00:42:55.484Z,0
2019-05-25T00:43:36.060Z,0
2019-05-25T00:44:16.615Z,0
2019-05-25T00:44:57.178Z,0
2019-05-25T00:45:37.733Z,0
2019-05-25T00:46:18.300Z,0
2019-05-25T00:46:58.874Z,0
2019-05-25T00:50:32.869Z,0
2019-05-25T00:51:13.437Z,0
2019-05-25T00:51:54.004Z,0
2019-05-25T00:52:34.557Z,0
2019-05-25T00:53:15.179Z,0
2019-05-25T00:53:55.688Z,0
2019-05-25T00:54:36.276Z,0
2019-05-25T00:55:17.900Z,0
2019-05-25T01:00:42.544Z,0
2019-05-25T01:01:24.497Z,0
2019-05-25T01:02:03.672Z,0
2019-05-25T01:02:44.239Z,0
2019-05-25T01:03:24.789Z,0
2019-05-25T01:04:05.356Z,0
2019-05-25T01:04:45.922Z,0
2019-05-25T01:05:26.484Z,0
2019-05-25T01:06:07.041Z,0
2019-05-25T01:06:47.602Z,0
2019-05-25T01:12:52.691Z,0
2019-05-25T01:13:33.262Z,0
2019-05-25T01:14:13.834Z,0
2019-05-25T01:14:54.402Z,0
2019-05-25T01:15:34.961Z,0
2019-05-25T01:16:15.520Z,0
2019-05-25T01:16:56.084Z,0
2019-05-25T01:17:36.685Z,0
2019-05-25T01:18:17.251Z,0
2019-05-25T01:18:57.829Z,0
2019-05-25T01:25:02.990Z,0
2019-05-25T01:25:43.563Z,0
2019-05-25T01:26:24.138Z,0
2019-05-25T01:27:04.701Z,0
2019-05-25T01:27:45.276Z,0
2019-05-25T01:28:25.883Z,0
2019-05-25T01:29:06.401Z,0
2019-05-25T01:29:46.956Z,0
2019-05-25T01:30:27.531Z,0
2019-05-25T01:36:32.644Z,0
2019-05-25T01:37:13.214Z,0
2019-05-25T01:37:53.758Z,0
2019-05-25T01:38:34.338Z,0
2019-05-25T01:39:14.898Z,0
2019-05-25T01:39:55.476Z,0
2019-05-25T01:40:36.031Z,0
2019-05-25T01:41:16.591Z,0
2019-05-25T01:41:57.148Z,0
2019-05-25T01:42:37.732Z,0
2019-05-25T01:48:42.838Z,0
2019-05-25T01:49:23.397Z,0
2019-05-25T01:50:03.964Z,0
2019-05-25T01:50:44.529Z,0
2019-05-25T01:51:25.076Z,0
2019-05-25T01:52:05.643Z,0
2019-05-25T01:52:46.181Z,0
2019-05-25T01:53:26.770Z,0
2019-05-25T01:54:07.361Z,0
2019-05-25T01:54:59.289Z,0
2019-05-25T02:00:53.073Z,0
2019-05-25T02:01:33.632Z,0
2019-05-25T02:02:14.195Z,0
2019-05-25T02:02:54.814Z,0
2019-05-25T02:03:35.382Z,0
2019-05-25T02:04:15.945Z,0
2019-05-25T02:04:56.503Z,0
2019-05-25T02:05:37.054Z,0
2019-05-25T02:06:17.633Z,0
2019-05-25T02:12:22.733Z,0
2019-05-25T02:13:03.299Z,0
2019-05-25T02:13:43.861Z,0
2019-05-25T02:14:24.416Z,0
2019-05-25T02:15:04.963Z,0
2019-05-25T02:15:45.526Z,0
2019-05-25T02:16:26.080Z,0
2019-05-25T02:17:06.642Z,0
2019-05-25T02:17:47.196Z,0
2019-05-25T02:18:27.744Z,4
2019-05-25T02:24:32.834Z,4
2019-05-25T02:25:18.409Z,0
2019-05-25T02:25:54.001Z,4
2019-05-25T02:26:34.627Z,4
2019-05-25T02:27:15.152Z,4
2019-05-25T02:27:55.712Z,4
2019-05-25T02:28:36.290Z,4
2019-05-25T02:29:16.850Z,4
2019-05-25T02:29:57.409Z,4
2019-05-25T02:36:43.045Z,12
2019-05-25T02:37:23.609Z,12
2019-05-25T02:38:04.172Z,12
2019-05-25T02:38:44.756Z,12
2019-05-25T02:39:25.314Z,16
2019-05-25T02:40:05.865Z,16
2019-05-25T02:40:46.422Z,20
2019-05-25T02:41:26.976Z,20
2019-05-25T02:42:07.527Z,20
2019-05-25T02:48:12.577Z,40
2019-05-25T02:48:53.149Z,40
2019-05-25T02:49:33.740Z,44
2019-05-25T02:50:14.308Z,52
2019-05-25T02:50:54.872Z,52
2019-05-25T02:51:35.441Z,60
2019-05-25T02:52:16.000Z,60
2019-05-25T02:52:56.579Z,68
2019-05-25T02:53:37.138Z,68
2019-05-25T02:54:17.701Z,72
2019-05-25T03:00:22.787Z,112
2019-05-25T03:01:03.374Z,112
2019-05-25T03:01:43.897Z,120
2019-05-25T03:02:24.449Z,128
2019-05-25T03:03:05.035Z,132
2019-05-25T03:03:45.602Z,136
2019-05-25T03:04:26.175Z,144
2019-05-25T03:05:06.723Z,148
2019-05-25T03:05:47.283Z,156
2019-05-25T03:06:27.855Z,164
2019-05-25T03:12:32.893Z,228
2019-05-25T03:13:13.448Z,232
2019-05-25T03:13:53.998Z,240
2019-05-25T03:14:34.565Z,252
2019-05-25T03:15:15.129Z,264
2019-05-25T03:15:55.697Z,272
2019-05-25T03:16:36.285Z,284
2019-05-25T03:17:16.844Z,296
2019-05-25T03:17:57.433Z,304
2019-05-25T03:24:43.051Z,400
2019-05-25T03:25:23.604Z,416
2019-05-25T03:26:04.208Z,436
2019-05-25T03:26:44.739Z,456
2019-05-25T03:27:25.308Z,468
2019-05-25T03:28:05.886Z,488
2019-05-25T03:28:46.457Z,508
2019-05-25T03:29:27.020Z,528
2019-05-25T03:30:07.609Z,548
2019-05-25T03:36:12.729Z,704
2019-05-25T03:36:53.288Z,716
2019-05-25T03:37:33.849Z,728
2019-05-25T03:38:14.433Z,744
2019-05-25T03:38:54.983Z,752
2019-05-25T03:39:35.550Z,764
2019-05-25T03:40:16.118Z,764
2019-05-25T03:40:56.691Z,776
2019-05-25T03:41:37.259Z,788
2019-05-25T03:42:17.838Z,808
2019-05-25T03:48:23.010Z,980
2019-05-25T03:49:03.574Z,988
2019-05-25T03:49:44.129Z,992
2019-05-25T03:50:24.695Z,996
2019-05-25T03:51:05.275Z,996
2019-05-25T03:51:45.833Z,1000
2019-05-25T03:52:26.409Z,1016
2019-05-25T03:53:06.994Z,1040
2019-05-25T03:53:47.570Z,1064
2019-05-25T03:59:52.631Z,1248
2019-05-25T04:00:33.208Z,1284
2019-05-25T04:01:13.763Z,1316
2019-05-25T04:01:54.315Z,1348
2019-05-25T04:02:34.897Z,1376
2019-05-25T04:03:15.468Z,1396
2019-05-25T04:03:56.036Z,1420
2019-05-25T04:04:36.621Z,1436
2019-05-25T04:05:17.204Z,1460
2019-05-25T04:05:57.806Z,1500
2019-05-25T04:12:02.973Z,1996
2019-05-25T04:12:43.538Z,2072
2019-05-25T04:13:24.083Z,2152
2019-05-25T04:14:04.663Z,2232
2019-05-25T04:14:45.222Z,2308
2019-05-25T04:15:25.785Z,2372
2019-05-25T04:16:06.371Z,2440
2019-05-25T04:16:46.931Z,2504
2019-05-25T04:17:27.486Z,2576
2019-05-25T04:23:32.619Z,3104
2019-05-25T04:24:13.171Z,3144
2019-05-25T04:24:53.794Z,3180
2019-05-25T04:25:34.380Z,3216
2019-05-25T04:26:22.318Z,3244
2019-05-25T04:26:55.511Z,3272
2019-05-25T04:27:36.118Z,3284
2019-05-25T04:28:16.658Z,3292
2019-05-25T04:28:57.214Z,3288
2019-05-25T04:29:37.800Z,3280
2019-05-25T04:35:42.938Z,3280
2019-05-25T04:36:23.500Z,3296
2019-05-25T04:37:04.081Z,3332
2019-05-25T04:37:44.658Z,3368
2019-05-25T04:38:25.216Z,3400
2019-05-25T04:39:05.791Z,3408
2019-05-25T04:39:46.349Z,3396
2019-05-25T04:40:26.911Z,3372
2019-05-25T04:41:07.471Z,3372
2019-05-25T04:47:26.030Z,3492
2019-05-25T04:47:53.225Z,3488
2019-05-25T04:48:33.781Z,3472
2019-05-25T04:49:14.345Z,3476
2019-05-25T04:49:54.914Z,3492
2019-05-25T04:50:35.507Z,3508
2019-05-25T04:51:16.246Z,3512
2019-05-25T04:51:56.813Z,3504
2019-05-25T04:52:40.842Z,3504
2019-05-25T04:59:22.999Z,3560
2019-05-25T05:00:03.556Z,3568
2019-05-25T05:00:44.131Z,3564
2019-05-25T05:01:24.698Z,3552
2019-05-25T05:02:05.294Z,3552
2019-05-25T05:02:45.847Z,3552
2019-05-25T05:03:26.524Z,3524
2019-05-25T05:04:07.006Z,3524
2019-05-25T05:04:47.569Z,3584
2019-05-25T05:10:52.667Z,3632
2019-05-25T05:11:33.233Z,3620
2019-05-25T05:12:13.813Z,3604
2019-05-25T05:12:54.382Z,3560
2019-05-25T05:13:34.948Z,3496
2019-05-25T05:14:15.528Z,3400
2019-05-25T05:14:56.581Z,3356
2019-05-25T05:15:36.644Z,3436
2019-05-25T05:16:17.209Z,3512
2019-05-25T05:16:57.776Z,3508
2019-05-25T05:23:02.913Z,3964
2019-05-25T05:23:43.472Z,4144
2019-05-25T05:24:24.038Z,4220
2019-05-25T05:25:04.695Z,4420
2019-05-25T05:25:45.263Z,4532
2019-05-25T05:26:25.844Z,4964
2019-05-25T05:27:06.416Z,24928
2019-05-25T05:27:46.984Z,56448
2019-05-25T05:28:27.538Z,80960
2019-05-25T05:34:32.613Z,87552
2019-05-25T05:35:13.180Z,87424
2019-05-25T05:35:53.732Z,80736
2019-05-25T05:36:34.314Z,79808
2019-05-25T05:37:14.899Z,86272
2019-05-25T05:37:55.660Z,87712
2019-05-25T05:38:36.234Z,86464
2019-05-25T05:39:16.786Z,82336
2019-05-25T05:39:57.398Z,70048
2019-05-25T05:40:38.031Z,61920
2019-05-25T05:46:02.558Z,94464
2019-05-25T05:46:43.140Z,95136
2019-05-25T05:47:23.710Z,96032
2019-05-25T05:48:04.289Z,98112
2019-05-25T05:48:44.860Z,100288
2019-05-25T05:49:25.456Z,99840
2019-05-25T05:50:06.018Z,98560
2019-05-25T05:50:46.597Z,96736
2019-05-25T05:51:27.142Z,96224
2019-05-25T05:52:07.736Z,98848
2019-05-25T05:58:13.005Z,102656
2019-05-25T05:58:53.577Z,101408
2019-05-25T05:59:34.169Z,100384
2019-05-25T06:00:14.731Z,96896
2019-05-25T06:00:55.318Z,94400
2019-05-25T06:01:35.888Z,92992
2019-05-25T06:02:16.443Z,97088
2019-05-25T06:02:57.022Z,102176
2019-05-25T06:03:37.636Z,102912
2019-05-25T06:09:42.830Z,99040
2019-05-25T06:10:23.400Z,60992
2019-05-25T06:11:03.984Z,95712
2019-05-25T06:11:44.563Z,92640
2019-05-25T06:12:25.169Z,93056
2019-05-25T06:13:05.712Z,90560
2019-05-25T06:13:46.338Z,91552
2019-05-25T06:14:26.962Z,94720
2019-05-25T06:15:07.467Z,95104
2019-05-25T06:21:12.733Z,98272
2019-05-25T06:21:53.309Z,98304
2019-05-25T06:22:33.899Z,88320
2019-05-25T06:23:14.481Z,82464
2019-05-25T06:23:55.061Z,100992
2019-05-25T06:24:35.627Z,94336
2019-05-25T06:25:16.182Z,88736
2019-05-25T06:25:56.764Z,85280
2019-05-25T06:26:37.329Z,80960
2019-05-25T06:27:26.746Z,78272
2019-05-25T06:32:02.994Z,72096
2019-05-25T06:32:43.581Z,60352
2019-05-25T06:33:24.558Z,49984
2019-05-25T06:34:05.432Z,38592
2019-05-25T06:37:19.422Z,14364
2019-05-25T06:38:00.018Z,16400
2019-05-25T06:38:40.649Z,8716
2019-05-25T06:39:21.249Z,17568
2019-05-25T06:40:01.849Z,18048
2019-05-25T06:40:42.491Z,13920
2019-05-25T06:41:23.153Z,12600
2019-05-25T06:42:03.724Z,99968
2019-05-25T06:42:44.344Z,99552
2019-05-25T06:48:49.607Z,7780
2019-05-25T06:49:30.219Z,6888
2019-05-25T06:50:10.872Z,7476
2019-05-25T06:50:52.765Z,10768
2019-05-25T06:51:33.359Z,28960
2019-05-25T06:52:13.993Z,13256
2019-05-25T06:57:15.255Z,7032
2019-05-25T06:57:55.816Z,7672
2019-05-25T06:58:36.380Z,12100
2019-05-25T06:59:16.966Z,80352
2019-05-25T06:59:57.611Z,67776
2019-05-25T07:00:38.245Z,15604
2019-05-25T07:01:18.825Z,9748
2019-05-25T07:01:59.390Z,11920
2019-05-25T07:02:39.955Z,10460
2019-05-25T07:06:59.960Z,4368
2019-05-25T07:07:40.528Z,4012
2019-05-25T07:08:21.101Z,4184
2019-05-25T07:09:01.664Z,4532
2019-05-25T07:09:42.271Z,4752
2019-05-25T07:10:22.830Z,5260
2019-05-25T07:11:03.404Z,5724
2019-05-25T07:11:44.735Z,6052
2019-05-25T07:12:24.825Z,6976
2019-05-25T07:17:10.162Z,57216
2019-05-25T07:17:50.874Z,19360
2019-05-25T07:18:34.755Z,19424
2019-05-25T07:19:12.059Z,14576
2019-05-25T07:19:52.624Z,23328
2019-05-25T07:20:33.188Z,11636
2019-05-25T07:21:13.764Z,8744
2019-05-25T07:21:54.319Z,7184
2019-05-25T07:22:34.890Z,7824
2019-05-25T07:28:00.517Z,4564
2019-05-25T07:28:41.001Z,4220
2019-05-25T07:29:21.571Z,4112
2019-05-25T07:30:02.150Z,4476
2019-05-25T07:30:45.987Z,4964
2019-05-25T07:31:23.317Z,4780
2019-05-25T07:32:03.894Z,4040
2019-05-25T07:32:44.462Z,3548
2019-05-25T07:33:25.032Z,4552
2019-05-25T07:38:49.765Z,27968
2019-05-25T07:39:30.333Z,5620
2019-05-25T07:40:10.935Z,4704
2019-05-25T07:40:51.529Z,8648
2019-05-25T07:41:32.172Z,12428
2019-05-25T07:42:12.737Z,6488
2019-05-25T07:42:53.321Z,5940
2019-05-25T07:43:33.911Z,5172
2019-05-25T07:44:14.489Z,4880
2019-05-25T07:44:55.066Z,6956
2019-05-25T07:50:19.842Z,6600
2019-05-25T07:51:00.417Z,6092
2019-05-25T07:51:40.977Z,6244
2019-05-25T07:52:21.538Z,5936
2019-05-25T07:53:02.132Z,5892
2019-05-25T07:53:42.697Z,6032
2019-05-25T07:54:23.267Z,5672
2019-05-25T07:55:03.842Z,5256
2019-05-25T07:55:44.412Z,5108
2019-05-25T07:56:24.977Z,10548
2019-05-25T08:02:30.123Z,4200
2019-05-25T08:03:10.680Z,3780
2019-05-25T08:03:51.290Z,3348
2019-05-25T08:04:31.854Z,3132
2019-05-25T08:05:12.445Z,3008
2019-05-25T08:05:53.040Z,3244
2019-05-25T08:06:33.638Z,3732
2019-05-25T08:07:14.234Z,3856
2019-05-25T08:07:54.793Z,3916
2019-05-25T08:13:59.991Z,2788
2019-05-25T08:14:40.553Z,2684
2019-05-25T08:15:21.120Z,2676
2019-05-25T08:16:01.693Z,2724
2019-05-25T08:16:42.256Z,2804
2019-05-25T08:17:22.840Z,2864
2019-05-25T08:18:03.441Z,2984
2019-05-25T08:18:44.028Z,3036
2019-05-25T08:19:24.794Z,2916
2019-05-25T08:23:30.706Z,2752
2019-05-25T08:24:12.245Z,2644
2019-05-25T08:24:52.811Z,2572
2019-05-25T08:25:33.380Z,2612
2019-05-25T08:26:13.935Z,2744
2019-05-25T08:26:54.495Z,3040
2019-05-25T08:32:59.836Z,4688
2019-05-25T08:33:40.460Z,4820
2019-05-25T08:34:21.036Z,4748
2019-05-25T08:35:01.632Z,4464
2019-05-25T08:35:42.218Z,4220
2019-05-25T08:36:22.761Z,4048
2019-05-25T08:37:03.331Z,3980
2019-05-25T08:37:43.896Z,3800
2019-05-25T08:38:24.446Z,3388
2019-05-25T08:39:05.018Z,3032
2019-05-25T08:44:29.605Z,2104
2019-05-25T08:45:10.226Z,2068
2019-05-25T08:45:50.785Z,2080
2019-05-25T08:46:31.388Z,2140
2019-05-25T08:47:11.969Z,2268
2019-05-25T08:47:52.534Z,2288
2019-05-25T08:48:33.091Z,2224
2019-05-25T08:49:13.662Z,2212
2019-05-25T08:49:54.222Z,2180
2019-05-25T08:50:38.084Z,2108
2019-05-25T08:56:39.960Z,3024
2019-05-25T08:57:20.505Z,3132
2019-05-25T08:58:01.077Z,3216
2019-05-25T08:58:49.097Z,3304
2019-05-25T08:59:22.253Z,3232
2019-05-25T09:00:02.839Z,3152
2019-05-25T09:00:43.397Z,3096
2019-05-25T09:01:23.963Z,2928
2019-05-25T09:02:04.674Z,2780
2019-05-25T09:07:30.344Z,2928
2019-05-25T09:08:10.906Z,2984
2019-05-25T09:08:51.483Z,3040
2019-05-25T09:09:32.052Z,3160
2019-05-25T09:10:12.609Z,3320
2019-05-25T09:10:53.177Z,3488
2019-05-25T09:11:33.752Z,3556
2019-05-25T09:12:14.347Z,3820
2019-05-25T09:12:54.880Z,4016
2019-05-25T09:19:58.274Z,7424
2019-05-25T09:20:39.360Z,6604
2019-05-25T09:21:20.429Z,5784
2019-05-25T09:22:03.352Z,5224
2019-05-25T09:22:42.701Z,4900
2019-05-25T09:25:27.829Z,3600
2019-05-25T09:26:09.052Z,3316
2019-05-25T09:29:23.182Z,3524
2019-05-25T09:30:03.741Z,3680
2019-05-25T09:30:44.313Z,3752
2019-05-25T09:31:24.864Z,3856
2019-05-25T09:32:07.078Z,4148
2019-05-25T09:32:46.019Z,4044
2019-05-25T09:33:26.593Z,3860
2019-05-25T09:34:07.205Z,3804
2019-05-25T09:34:47.817Z,3720
2019-05-25T09:40:52.898Z,4604
2019-05-25T09:41:33.456Z,4876
2019-05-25T09:42:14.035Z,5032
2019-05-25T09:42:54.727Z,5120
2019-05-25T09:43:35.235Z,5208
2019-05-25T09:44:15.827Z,5244
2019-05-25T09:44:56.361Z,5168
2019-05-25T09:45:36.926Z,5924
2019-05-25T09:46:17.487Z,6528
2019-05-25T09:46:58.139Z,7252
2019-05-25T09:53:03.231Z,8592
2019-05-25T09:53:43.775Z,8468
2019-05-25T09:54:24.366Z,8036
2019-05-25T09:55:04.946Z,7628
2019-05-25T09:55:45.525Z,7780
2019-05-25T09:56:26.096Z,8308
2019-05-25T09:57:06.649Z,7644
2019-05-25T09:57:47.219Z,7452
2019-05-25T09:58:27.782Z,7468
2019-05-25T10:04:32.935Z,7332
2019-05-25T10:05:13.509Z,6872
2019-05-25T10:05:54.094Z,6812
2019-05-25T10:06:34.660Z,6692
2019-05-25T10:07:15.223Z,6580
2019-05-25T10:07:55.826Z,6468
2019-05-25T10:08:36.408Z,6452
2019-05-25T10:09:16.973Z,6228
2019-05-25T10:09:57.527Z,6032
2019-05-25T10:10:38.125Z,5912
2019-05-25T10:16:02.899Z,5596
2019-05-25T10:16:43.290Z,5964
2019-05-25T10:17:23.860Z,5864
2019-05-25T10:18:04.424Z,5952
2019-05-25T10:18:44.987Z,6320
2019-05-25T10:19:25.555Z,6840
2019-05-25T10:20:06.111Z,7112
2019-05-25T10:20:46.723Z,7376
2019-05-25T10:21:27.276Z,7484
2019-05-25T10:22:07.881Z,7304
2019-05-25T10:28:13.018Z,4560
2019-05-25T10:28:53.581Z,4824
2019-05-25T10:29:37.419Z,4924
2019-05-25T10:30:14.787Z,4908
2019-05-25T10:30:55.391Z,4880
2019-05-25T10:31:35.959Z,4748
2019-05-25T10:32:16.520Z,4576
2019-05-25T10:32:57.082Z,4524
2019-05-25T10:33:37.649Z,4372
2019-05-25T10:34:18.199Z,4024
2019-05-25T10:39:42.929Z,4556
2019-05-25T10:40:23.516Z,4712
2019-05-25T10:41:04.117Z,4812
2019-05-25T10:41:44.674Z,4860
2019-05-25T10:42:25.242Z,4784
2019-05-25T10:43:05.828Z,4696
2019-05-25T10:43:46.422Z,4752
2019-05-25T10:44:27.002Z,4808
2019-05-25T10:45:07.609Z,4772
2019-05-25T10:45:48.203Z,4604
2019-05-25T10:51:53.627Z,4144
2019-05-25T10:52:34.169Z,4048
2019-05-25T10:53:14.737Z,3936
2019-05-25T10:53:55.308Z,3952
2019-05-25T10:54:35.902Z,3968
2019-05-25T10:55:16.502Z,4192
2019-05-25T10:55:57.019Z,4320
2019-05-25T10:56:37.596Z,4544
2019-05-25T10:57:18.171Z,4852
2019-05-25T11:03:23.358Z,6492
2019-05-25T11:04:03.925Z,6408
2019-05-25T11:04:44.540Z,6912
2019-05-25T11:05:25.086Z,6452
2019-05-25T11:06:05.640Z,6732
2019-05-25T11:06:46.186Z,6960
2019-05-25T11:07:26.764Z,7168
2019-05-25T11:08:07.290Z,7344
2019-05-25T11:08:47.904Z,7372
2019-05-25T11:14:53.266Z,6020
2019-05-25T11:15:33.833Z,5776
2019-05-25T11:16:14.409Z,5648
2019-05-25T11:16:54.964Z,5592
2019-05-25T11:17:35.555Z,5756
2019-05-25T11:18:16.151Z,5960
2019-05-25T11:18:56.731Z,6040
2019-05-25T11:19:37.312Z,6004
2019-05-25T11:20:17.989Z,5892
2019-05-25T11:26:23.163Z,5096
2019-05-25T11:27:03.943Z,5492
2019-05-25T11:27:44.835Z,5716
2019-05-25T11:28:25.419Z,5776
2019-05-25T11:29:06.304Z,5772
2019-05-25T11:29:46.876Z,5756
2019-05-25T11:30:27.456Z,5472
2019-05-25T11:31:08.066Z,5252
2019-05-25T11:37:15.541Z,6348
2019-05-25T11:37:54.008Z,6624
2019-05-25T11:38:34.601Z,6632
2019-05-25T11:39:15.154Z,6632
2019-05-25T11:39:55.750Z,6460
2019-05-25T11:40:36.315Z,6172
2019-05-25T11:41:16.868Z,5864
2019-05-25T11:41:57.429Z,6196
2019-05-25T11:42:38.119Z,5876
2019-05-25T11:48:43.309Z,4112
2019-05-25T11:49:23.964Z,3832
2019-05-25T11:50:04.549Z,3628
2019-05-25T11:50:45.109Z,3556
2019-05-25T11:51:25.701Z,3632
2019-05-25T11:52:06.318Z,3692
2019-05-25T11:52:46.905Z,3796
2019-05-25T11:53:27.464Z,3812
2019-05-25T11:54:08.208Z,3704
2019-05-25T11:59:33.239Z,3848
2019-05-25T12:00:24.040Z,3884
2019-05-25T12:00:54.372Z,3864
2019-05-25T12:01:34.981Z,3792
2019-05-25T12:02:15.641Z,3784
2019-05-25T12:02:56.218Z,3780
2019-05-25T12:03:36.788Z,3796
2019-05-25T12:04:17.374Z,3736
2019-05-25T12:04:57.930Z,3748
2019-05-25T12:11:03.322Z,4396
2019-05-25T12:11:43.890Z,4316
2019-05-25T12:12:24.469Z,4124
2019-05-25T12:13:05.105Z,4004
2019-05-25T12:13:45.666Z,3936
2019-05-25T12:14:26.231Z,3820
2019-05-25T12:15:06.824Z,3732
2019-05-25T12:15:47.372Z,3768
2019-05-25T12:16:27.941Z,3776
2019-05-25T12:22:33.179Z,4608
2019-05-25T12:23:13.770Z,4600
2019-05-25T12:23:54.346Z,4504
2019-05-25T12:24:34.914Z,4424
2019-05-25T12:25:15.493Z,4396
2019-05-25T12:25:56.065Z,4368
2019-05-25T12:26:36.635Z,4220
2019-05-25T12:27:17.655Z,4124
2019-05-25T12:27:58.208Z,4136
2019-05-25T12:33:22.865Z,3472
2019-05-25T12:34:03.435Z,3264
2019-05-25T12:34:44.013Z,3088
2019-05-25T12:35:24.594Z,2932
2019-05-25T12:38:38.521Z,3076
2019-05-25T12:39:19.090Z,3156
2019-05-25T12:39:59.663Z,3240
2019-05-25T12:40:52.628Z,3348
2019-05-25T12:41:20.850Z,3492
2019-05-25T12:42:01.494Z,4304
2019-05-25T12:42:45.585Z,3672
2019-05-25T12:43:22.615Z,3536
2019-05-25T12:44:03.327Z,3452
2019-05-25T12:50:08.500Z,4700
2019-05-25T12:50:49.078Z,4668
2019-05-25T12:51:29.728Z,4540
2019-05-25T12:52:10.370Z,4572
2019-05-25T12:52:50.962Z,4440
2019-05-25T12:53:31.534Z,4544
2019-05-25T12:54:12.123Z,4888
2019-05-25T12:54:52.673Z,5224
2019-05-25T12:55:33.246Z,5536
2019-05-25T13:00:28.360Z,4812
2019-05-25T13:01:08.937Z,4656
2019-05-25T13:01:49.450Z,4448
2019-05-25T13:02:30.145Z,4300
2019-05-25T13:03:11.354Z,4140
2019-05-25T13:03:53.412Z,3940
2019-05-25T13:04:33.991Z,3792
2019-05-25T13:09:19.303Z,4208
2019-05-25T13:10:00.176Z,6076
2019-05-25T13:10:40.946Z,4888
2019-05-25T13:11:21.786Z,5296
2019-05-25T13:12:02.454Z,4528
2019-05-25T13:12:43.080Z,4612
2019-05-25T13:13:23.761Z,5388
2019-05-25T13:14:13.965Z,5292
2019-05-25T13:19:29.521Z,5032
2019-05-25T13:20:10.306Z,5072
2019-05-25T13:20:50.977Z,5076
2019-05-25T13:21:31.633Z,5064
2019-05-25T13:22:12.437Z,5064
2019-05-25T13:22:53.071Z,5060
2019-05-25T13:23:33.794Z,5040
2019-05-25T13:28:18.941Z,4700
2019-05-25T13:28:59.556Z,4904
2019-05-25T13:29:40.169Z,4536
2019-05-25T13:30:20.924Z,4784
2019-05-25T13:31:11.125Z,5192
2019-05-25T13:31:42.172Z,5192
2019-05-25T13:32:22.750Z,5344
2019-05-25T13:33:03.577Z,5304
2019-05-25T13:33:44.170Z,5204
2019-05-25T13:38:29.064Z,5008
2019-05-25T13:39:09.801Z,5028
2019-05-25T13:39:50.441Z,5044
2019-05-25T13:40:31.027Z,5056
2019-05-25T13:41:11.612Z,5036
2019-05-25T13:41:52.265Z,4932
2019-05-25T13:42:32.949Z,4884
2019-05-25T13:43:13.517Z,4904
2019-05-25T13:43:54.104Z,4952
2019-05-25T13:49:19.448Z,5004
2019-05-25T13:50:00.039Z,5016
2019-05-25T13:50:40.684Z,4936
2019-05-25T13:51:21.356Z,4796
2019-05-25T13:52:01.938Z,4600
2019-05-25T13:52:42.659Z,4488
2019-05-25T13:53:23.401Z,4488
2019-05-25T13:54:03.993Z,4484
2019-05-25T13:59:29.281Z,4176
2019-05-25T14:00:09.874Z,4172
2019-05-25T14:00:50.524Z,4292
2019-05-25T14:01:31.139Z,4648
2019-05-25T14:02:11.698Z,4928
2019-05-25T14:02:52.264Z,5308
2019-05-25T14:03:32.992Z,5884
2019-05-25T14:04:13.579Z,5080
2019-05-25T14:04:54.187Z,4908
2019-05-25T14:10:19.017Z,3964
2019-05-25T14:10:59.931Z,3956
2019-05-25T14:11:40.505Z,3992
2019-05-25T14:12:21.000Z,4028
2019-05-25T14:13:01.605Z,4080
2019-05-25T14:13:42.222Z,4096
2019-05-25T14:14:24.444Z,4160
2019-05-25T14:15:03.369Z,4224
2019-05-25T14:15:43.900Z,4212
2019-05-25T14:21:09.326Z,5076
2019-05-25T14:21:49.845Z,4716
2019-05-25T14:22:30.450Z,4644
2019-05-25T14:23:11.167Z,4696
2019-05-25T14:23:51.741Z,4708
2019-05-25T14:24:32.426Z,4660
2019-05-25T14:25:13.082Z,4608
2019-05-25T14:25:53.692Z,4432
2019-05-25T14:26:34.344Z,4372
2019-05-25T14:31:59.341Z,4568
2019-05-25T14:32:39.906Z,4500
2019-05-25T14:33:20.477Z,4468
2019-05-25T14:34:01.048Z,4488
2019-05-25T14:34:41.602Z,4556
2019-05-25T14:35:22.159Z,4512
2019-05-25T14:36:02.720Z,4596
2019-05-25T14:36:43.484Z,4368
2019-05-25T14:37:24.048Z,4532
2019-05-25T14:43:29.330Z,4664
2019-05-25T14:44:09.883Z,4312
2019-05-25T14:44:50.478Z,4196
2019-05-25T14:45:31.077Z,4064
2019-05-25T14:46:25.165Z,4000
2019-05-25T14:46:52.293Z,3992
2019-05-25T14:47:32.875Z,3988
2019-05-25T14:48:13.448Z,4040
2019-05-25T14:48:54.083Z,4076
2019-05-25T14:54:59.409Z,3828
2019-05-25T14:55:39.984Z,3780
2019-05-25T14:56:20.609Z,3764
2019-05-25T14:57:01.152Z,3776
2019-05-25T14:57:41.732Z,3848
2019-05-25T14:58:22.330Z,3856
2019-05-25T14:59:02.892Z,3996
2019-05-25T14:59:43.470Z,3964
2019-05-25T15:00:24.439Z,4052
2019-05-25T15:05:49.243Z,3760
2019-05-25T15:06:29.828Z,3748
2019-05-25T15:07:10.693Z,3740
2019-05-25T15:07:51.004Z,3704
2019-05-25T15:08:31.815Z,3724
2019-05-25T15:09:12.353Z,3800
2019-05-25T15:09:52.938Z,3912
2019-05-25T15:10:33.635Z,3964
2019-05-25T15:11:14.189Z,3996
2019-05-25T15:16:39.112Z,4236
2019-05-25T15:17:19.739Z,4180
2019-05-25T15:18:00.343Z,3988
2019-05-25T15:18:41.007Z,3820
2019-05-25T15:19:21.609Z,3712
2019-05-25T15:20:02.177Z,3608
2019-05-25T15:20:42.769Z,3564
2019-05-25T15:21:23.422Z,3504
2019-05-25T15:22:04.156Z,3388
2019-05-25T15:27:29.508Z,4344
2019-05-25T15:28:10.110Z,4004
2019-05-25T15:28:50.765Z,4196
2019-05-25T15:29:31.461Z,4200
2019-05-25T15:30:12.018Z,3912
2019-05-25T15:30:52.578Z,3916
2019-05-25T15:31:33.196Z,4000
2019-05-25T15:32:19.815Z,4040
2019-05-25T15:32:54.318Z,6000
2019-05-25T15:38:19.178Z,3232
2019-05-25T15:38:59.801Z,3080
2019-05-25T15:39:40.517Z,2868
2019-05-25T15:40:21.093Z,2744
2019-05-25T15:41:01.804Z,2740
2019-05-25T15:41:42.441Z,2740
2019-05-25T15:42:23.128Z,2740
2019-05-25T15:43:03.634Z,2608
2019-05-25T15:43:44.316Z,2504
2019-05-25T15:49:09.125Z,2492
2019-05-25T15:49:49.723Z,2356
2019-05-25T15:50:30.355Z,2244
2019-05-25T15:51:10.876Z,2180
2019-05-25T15:51:51.567Z,2080
2019-05-25T15:52:32.139Z,1948
2019-05-25T15:53:12.746Z,1892
2019-05-25T15:53:53.301Z,1844
2019-05-25T15:54:33.869Z,1856
2019-05-25T16:00:39.771Z,2272
2019-05-25T16:01:19.559Z,2360
2019-05-25T16:02:00.151Z,3296
2019-05-25T16:02:40.748Z,2580
2019-05-25T16:03:21.296Z,2628
2019-05-25T16:04:01.868Z,2784
2019-05-25T16:04:42.455Z,2880
2019-05-25T16:05:23.019Z,3644
2019-05-25T16:06:03.598Z,2856
2019-05-25T16:06:44.209Z,2780
2019-05-25T16:12:49.458Z,2120
2019-05-25T16:13:30.024Z,2024
2019-05-25T16:14:10.577Z,1984
2019-05-25T16:14:51.178Z,1952
2019-05-25T16:15:31.736Z,1888
2019-05-25T16:16:12.298Z,1832
2019-05-25T16:16:52.848Z,1756
2019-05-25T16:17:33.447Z,1672
2019-05-25T16:18:14.028Z,1564
2019-05-25T16:24:19.153Z,1248
2019-05-25T16:24:59.785Z,1256
2019-05-25T16:25:40.318Z,1276
2019-05-25T16:26:20.896Z,1260
2019-05-25T16:27:01.538Z,1224
2019-05-25T16:27:42.101Z,1204
2019-05-25T16:28:22.665Z,1188
2019-05-25T16:29:03.247Z,1172
2019-05-25T16:29:43.817Z,1152
2019-05-25T16:35:49.044Z,1028
2019-05-25T16:36:29.633Z,1016
2019-05-25T16:37:10.334Z,1000